Terminal Aerodrome Forecast
Issued by NWS

Home | Current Version | Previous Version | Text Only | Print | Product List | Glossary On
Versions: 1 2 3 4 5 6 7 8 9 10 11 12 13 14 15 16 17 18 19 20 21 22 23 24 25 26 27 28 29 30 31 32 33 34 35 36 37 38 39 40 41 42 43 44 45 46 47 48 49 50
000
FTUS41 KCTP 280603 RRA
TAFUNV
TAF
KUNV 280603Z 2806/2906 00000KT P6SM BKN050
      TEMPO 2806/2807 -SHRA
     FM280800 00000KT 4SM BR VCSH OVC050
     FM281200 07003KT 2SM -SHRA BR OVC010
     FM281800 04003KT 4SM -SHRA BR OVC010
     FM290000 33005KT 5SM BR OVC015=

USA.gov is the U.S. government's official web portal to all federal, state and local government web resources and services.